Time;durP1;ratioP1;P1;durP2;ratioP2;P2;SDS_P1;SDS_P2;PMS_P1;PMS_P2;Temp;Humidity;BMP_temperature;BMP_pressure;BME280_temperature;BME280_humidity;BME280_pressure;Samples;Min_cycle;Max_cycle;Signal;HPM_P1;HPM_P2
2024/03/10 00:01:43;;;;;;;6.65;3.33;;;;;;;;;;7412889;19;19914;-82
2024/03/10 00:04:28;;;;;;;6.07;2.50;;;;;;;;;;7415511;19;19910;-82
2024/03/10 00:07:13;;;;;;;6.82;3.10;;;;;;;;;;7420524;19;19911;-82
2024/03/10 00:09:57;;;;;;;6.10;3.65;;;;;;;;;;7429709;19;19914;-82
2024/03/10 00:12:48;;;;;;;5.93;3.05;;;;;;;;;;7425590;19;19984;-83
2024/03/10 00:15:32;;;;;;;5.75;2.70;;;;;;;;;;7424970;19;19930;-83
2024/03/10 00:18:22;;;;;;;6.97;3.30;;;;;;;;;;7421735;19;20266;-83
2024/03/10 00:21:09;;;;;;;4.93;2.92;;;;;;;;;;7424925;19;19918;-83
2024/03/10 00:23:55;;;;;;;6.55;2.90;;;;;;;;;;7428012;19;19918;-82
2024/03/10 00:26:42;;;;;;;5.82;2.92;;;;;;;;;;7425684;19;19960;-82
2024/03/10 00:29:34;;;;;;;6.95;3.20;;;;;;;;;;7419979;19;20281;-82
2024/03/10 00:32:18;;;;;;;9.07;3.72;;;;;;;;;;7414026;19;20366;-82
2024/03/10 00:35:05;;;;;;;6.57;3.15;;;;;;;;;;7417642;19;19914;-82
2024/03/10 00:37:51;;;;;;;5.68;3.40;;;;;;;;;;7417721;19;19921;-82
2024/03/10 00:40:37;;;;;;;5.18;2.75;;;;;;;;;;7418198;19;19926;-82
2024/03/10 00:43:23;;;;;;;6.70;3.67;;;;;;;;;;7415946;19;19907;-82
2024/03/10 00:46:15;;;;;;;7.32;3.42;;;;;;;;;;7412290;19;19923;-79
2024/03/10 00:48:59;;;;;;;4.93;2.65;;;;;;;;;;7414223;19;19920;-79
2024/03/10 00:51:48;;;;;;;7.07;3.33;;;;;;;;;;7414239;19;19917;-79
2024/03/10 00:54:32;;;;;;;7.57;3.17;;;;;;;;;;7412261;19;19923;-79
2024/03/10 00:57:19;;;;;;;4.53;2.90;;;;;;;;;;7411998;19;19918;-79
2024/03/10 01:00:04;;;;;;;4.43;2.50;;;;;;;;;;7411916;19;19965;-79
2024/03/10 01:02:55;;;;;;;4.90;2.97;;;;;;;;;;7414100;19;19926;-79
2024/03/10 01:05:44;;;;;;;6.05;2.85;;;;;;;;;;7413111;19;19933;-79
2024/03/10 01:08:29;;;;;;;7.63;3.33;;;;;;;;;;7415674;19;20262;-79
2024/03/10 01:11:16;;;;;;;7.60;3.03;;;;;;;;;;7413226;19;20259;-79
2024/03/10 01:14:02;;;;;;;6.53;3.60;;;;;;;;;;7414522;19;20335;-79
2024/03/10 01:16:49;;;;;;;6.47;3.08;;;;;;;;;;7413472;19;19999;-79
2024/03/10 01:19:37;;;;;;;5.15;3.03;;;;;;;;;;7414398;19;20011;-79
2024/03/10 01:22:23;;;;;;;;;;;;;;;;;;7416247;19;20365;-79
2024/03/10 01:25:10;;;;;;;5.43;2.80;;;;;;;;;;7412435;19;19911;-80
2024/03/10 01:27:55;;;;;;;7.55;3.83;;;;;;;;;;7413510;19;20340;-80
2024/03/10 01:30:40;;;;;;;7.50;3.22;;;;;;;;;;7412438;19;19922;-80
2024/03/10 01:33:26;;;;;;;6.15;2.97;;;;;;;;;;7413523;19;20320;-80
2024/03/10 01:36:13;;;;;;;5.32;2.90;;;;;;;;;;7411538;19;19930;-80
2024/03/10 01:39:00;;;;;;;4.40;2.80;;;;;;;;;;7414444;19;20315;-80
2024/03/10 01:41:48;;;;;;;5.47;2.85;;;;;;;;;;7413423;19;19927;-80
2024/03/10 01:44:34;;;;;;;5.93;2.80;;;;;;;;;;7412764;19;19919;-80
2024/03/10 01:47:19;;;;;;;5.75;2.65;;;;;;;;;;7413400;19;19918;-80
2024/03/10 01:50:06;;;;;;;5.65;2.47;;;;;;;;;;7413099;19;20308;-80
2024/03/10 01:52:53;;;;;;;4.90;2.60;;;;;;;;;;7409577;19;19918;-80
2024/03/10 01:55:37;;;;;;;4.90;2.45;;;;;;;;;;7411929;19;19911;-80
2024/03/10 01:58:24;;;;;;;7.65;2.83;;;;;;;;;;7411424;19;20279;-80
2024/03/10 02:01:16;;;;;;;5.10;2.92;;;;;;;;;;7412624;19;19962;-80
2024/03/10 02:04:01;;;;;;;7.40;3.20;;;;;;;;;;7410711;19;19914;-80
2024/03/10 02:06:50;;;;;;;6.35;2.80;;;;;;;;;;7411796;19;20322;-80
2024/03/10 02:09:37;;;;;;;5.95;2.22;;;;;;;;;;7413051;19;19918;-80
2024/03/10 02:12:26;;;;;;;7.72;3.33;;;;;;;;;;7411682;19;20266;-80
2024/03/10 02:15:13;;;;;;;6.63;2.95;;;;;;;;;;7408742;19;19923;-80
2024/03/10 02:17:57;;;;;;;4.90;3.00;;;;;;;;;;7410393;19;19919;-80
2024/03/10 02:20:43;;;;;;;5.13;2.63;;;;;;;;;;7414174;19;19915;-80
2024/03/10 02:23:37;;;;;;;4.65;2.47;;;;;;;;;;7411201;19;19914;-80
2024/03/10 02:26:32;;;;;;;5.13;2.85;;;;;;;;;;7409211;19;19926;-80
2024/03/10 02:29:22;;;;;;;6.63;2.80;;;;;;;;;;7409686;19;19915;-80
2024/03/10 02:47:17;;;;;;;5.60;2.55;;;;;;;;;;7408775;19;19910;-80
2024/03/10 02:50:06;;;;;;;5.43;2.53;;;;;;;;;;7410611;19;19907;-80
2024/03/10 02:52:50;;;;;;;4.85;2.70;;;;;;;;;;7407507;19;19919;-80
2024/03/10 02:55:37;;;;;;;4.43;2.30;;;;;;;;;;7411183;19;19919;-80
2024/03/10 02:58:23;;;;;;;6.18;2.85;;;;;;;;;;7405978;19;19930;-80
2024/03/10 03:01:16;;;;;;;5.18;2.42;;;;;;;;;;7411705;19;19922;-80
2024/03/10 03:04:00;;;;;;;5.03;2.33;;;;;;;;;;7409715;19;19914;-80
2024/03/10 03:06:49;;;;;;;7.80;3.10;;;;;;;;;;7411597;19;19914;-80
2024/03/10 03:09:36;;;;;;;3.65;2.33;;;;;;;;;;7409889;19;19992;-80
2024/03/10 03:12:20;;;;;;;5.10;2.65;;;;;;;;;;7410844;19;19941;-80
2024/03/10 03:15:09;;;;;;;4.45;2.70;;;;;;;;;;7409720;19;19915;-80
2024/03/10 03:17:57;;;;;;;8.30;3.47;;;;;;;;;;7410816;19;19918;-80
2024/03/10 03:20:42;;;;;;;4.90;2.78;;;;;;;;;;7410157;19;19918;-80
2024/03/10 03:23:29;;;;;;;4.22;2.38;;;;;;;;;;7410894;19;19906;-80
2024/03/10 03:26:16;;;;;;;4.80;2.78;;;;;;;;;;7408145;19;19922;-80
2024/03/10 03:29:04;;;;;;;5.35;3.05;;;;;;;;;;7409693;19;20329;-80
2024/03/10 03:31:51;;;;;;;7.13;3.10;;;;;;;;;;7409254;19;19913;-80
2024/03/10 03:34:38;;;;;;;3.63;2.63;;;;;;;;;;7406899;19;19915;-80
2024/03/10 03:37:32;;;;;;;6.75;2.90;;;;;;;;;;7407581;19;19972;-80
2024/03/10 03:40:16;;;;;;;6.85;3.03;;;;;;;;;;7408273;19;19918;-80
2024/03/10 03:43:01;;;;;;;4.80;2.90;;;;;;;;;;7416243;19;19937;-80
2024/03/10 03:45:45;;;;;;;6.70;2.97;;;;;;;;;;7411858;19;19914;-80
2024/03/10 03:48:29;;;;;;;5.00;2.75;;;;;;;;;;7411790;19;19914;-80
2024/03/10 03:51:16;;;;;;;5.32;3.05;;;;;;;;;;7415432;19;20329;-80
2024/03/10 03:54:02;;;;;;;6.32;3.15;;;;;;;;;;7416619;19;19941;-81
2024/03/10 03:56:46;;;;;;;6.22;3.13;;;;;;;;;;7413793;19;19926;-79
2024/03/10 03:59:30;;;;;;;6.30;3.08;;;;;;;;;;7415941;19;19917;-79
2024/03/10 04:02:23;;;;;;;7.82;3.70;;;;;;;;;;7417215;19;19915;-79
2024/03/10 04:05:08;;;;;;;9.32;3.53;;;;;;;;;;7416042;19;19998;-79
2024/03/10 04:07:57;;;;;;;7.25;3.38;;;;;;;;;;7415390;19;20265;-79
2024/03/10 04:10:41;;;;;;;6.90;3.58;;;;;;;;;;7415135;19;19926;-79
2024/03/10 04:13:28;;;;;;;6.53;3.35;;;;;;;;;;7412802;19;20277;-79
2024/03/10 04:16:13;;;;;;;5.78;3.10;;;;;;;;;;7412192;19;19914;-79
2024/03/10 04:18:59;;;;;;;4.95;3.05;;;;;;;;;;7415542;19;19914;-79
2024/03/10 04:21:44;;;;;;;7.78;3.50;;;;;;;;;;7415038;19;19938;-79
2024/03/10 04:24:33;;;;;;;5.60;3.25;;;;;;;;;;7413262;19;19978;-79
2024/03/10 04:27:17;;;;;;;7.63;3.85;;;;;;;;;;7413799;19;19918;-79
2024/03/10 04:30:05;;;;;;;7.78;3.40;;;;;;;;;;7416436;19;20010;-79
2024/03/10 04:32:52;;;;;;;5.43;3.13;;;;;;;;;;7414709;19;19915;-79
2024/03/10 04:35:40;;;;;;;7.18;3.28;;;;;;;;;;7413009;19;20330;-79
2024/03/10 04:38:29;;;;;;;;;;;;;;;;;;7415414;19;19919;-79
2024/03/10 04:41:18;;;;;;;6.93;2.53;;;;;;;;;;7415544;19;19999;-79
2024/03/10 04:44:02;;;;;;;7.25;3.45;;;;;;;;;;7415956;19;19941;-79
2024/03/10 04:46:49;;;;;;;6.55;3.00;;;;;;;;;;7413545;19;19915;-79
2024/03/10 04:49:35;;;;;;;8.27;3.63;;;;;;;;;;7413255;19;19922;-79
2024/03/10 04:52:19;;;;;;;8.88;3.90;;;;;;;;;;7412249;19;20256;-79
2024/03/10 04:55:04;;;;;;;8.13;3.13;;;;;;;;;;7412827;19;20338;-79
2024/03/10 04:57:53;;;;;;;8.77;3.53;;;;;;;;;;7411806;19;19949;-79
2024/03/10 05:00:43;;;;;;;8.98;3.35;;;;;;;;;;7413334;19;20261;-79
2024/03/10 05:03:30;;;;;;;6.28;3.08;;;;;;;;;;7413220;19;19936;-79
2024/03/10 05:06:17;;;;;;;5.28;2.88;;;;;;;;;;7408828;19;19929;-79
2024/03/10 05:09:03;;;;;;;7.40;3.60;;;;;;;;;;7413679;19;19919;-79
2024/03/10 05:11:48;;;;;;;5.55;2.88;;;;;;;;;;7412532;19;19923;-79
2024/03/10 05:14:37;;;;;;;6.63;3.60;;;;;;;;;;7413472;19;19915;-79
2024/03/10 05:17:21;;;;;;;6.93;3.55;;;;;;;;;;7413247;19;19929;-79
2024/03/10 05:20:11;;;;;;;7.45;3.50;;;;;;;;;;7413238;19;19922;-80
2024/03/10 05:22:57;;;;;;;7.75;3.85;;;;;;;;;;7414489;19;19914;-79
2024/03/10 05:25:42;;;;;;;7.22;3.30;;;;;;;;;;7410355;19;20013;-79
2024/03/10 05:28:28;;;;;;;8.05;4.20;;;;;;;;;;7413387;19;19974;-79
2024/03/10 05:31:30;;;;;;;7.70;3.30;;;;;;;;;;7416553;19;19914;-79
2024/03/10 05:34:15;;;;;;;8.13;3.92;;;;;;;;;;7414467;19;19921;-79
2024/03/10 05:37:02;;;;;;;6.80;3.30;;;;;;;;;;7410571;19;19945;-79
2024/03/10 05:39:49;;;;;;;6.45;3.35;;;;;;;;;;7413856;19;20277;-79
2024/03/10 05:42:33;;;;;;;6.03;2.97;;;;;;;;;;7412373;19;19945;-79
2024/03/10 05:45:18;;;;;;;7.57;4.05;;;;;;;;;;7413271;19;19918;-79
2024/03/10 05:48:11;;;;;;;7.45;3.55;;;;;;;;;;7413663;19;20344;-79
2024/03/10 05:50:57;;;;;;;9.98;3.97;;;;;;;;;;7412226;19;20329;-79
2024/03/10 05:53:42;;;;;;;7.85;3.88;;;;;;;;;;7410818;19;19915;-79
2024/03/10 05:56:26;;;;;;;7.63;3.47;;;;;;;;;;7410640;19;19921;-79
2024/03/10 05:59:10;;;;;;;9.10;3.97;;;;;;;;;;7413896;19;19956;-79
2024/03/10 06:01:57;;;;;;;6.70;3.60;;;;;;;;;;7414461;19;19922;-79
2024/03/10 06:04:46;;;;;;;7.28;3.20;;;;;;;;;;7410362;19;19922;-79
2024/03/10 06:07:30;;;;;;;7.63;3.80;;;;;;;;;;7410881;19;19910;-79
2024/03/10 06:10:18;;;;;;;8.88;3.53;;;;;;;;;;7413357;19;19927;-79
2024/03/10 06:13:05;;;;;;;7.72;3.88;;;;;;;;;;7410480;19;20341;-79
2024/03/10 06:15:50;;;;;;;10.05;3.55;;;;;;;;;;7411431;19;19910;-79
2024/03/10 06:25:22;;;;;;;8.52;4.20;;;;;;;;;;7407936;19;19918;-79
2024/03/10 06:27:41;;;;;;;9.35;3.90;;;;;;;;;;7412198;19;19915;-79
2024/03/10 06:30:30;;;;;;;6.10;3.53;;;;;;;;;;7414180;19;20552;-79
2024/03/10 06:33:17;;;;;;;7.43;3.90;;;;;;;;;;7415172;19;19958;-79
2024/03/10 06:36:08;;;;;;;6.55;3.63;;;;;;;;;;7413728;19;19982;-79
2024/03/10 06:38:57;;;;;;;7.78;3.40;;;;;;;;;;7411756;19;19915;-79
2024/03/10 06:41:44;;;;;;;7.05;3.10;;;;;;;;;;7412974;19;19926;-79
2024/03/10 06:44:28;;;;;;;6.53;3.70;;;;;;;;;;7419200;19;19927;-79
2024/03/10 06:47:12;;;;;;;7.55;3.53;;;;;;;;;;7417389;19;19948;-83
2024/03/10 06:50:03;;;;;;;6.05;3.20;;;;;;;;;;7410879;19;19915;-81
2024/03/10 06:52:49;;;;;;;7.70;3.20;;;;;;;;;;7408835;19;19918;-81
2024/03/10 06:55:35;;;;;;;8.00;3.53;;;;;;;;;;7402807;19;19923;-81
2024/03/10 06:58:20;;;;;;;10.75;4.13;;;;;;;;;;7406378;19;19911;-81
2024/03/10 07:01:07;;;;;;;9.13;3.72;;;;;;;;;;7408786;19;19906;-81
2024/03/10 07:03:52;;;;;;;7.97;3.40;;;;;;;;;;7407770;19;19925;-81
2024/03/10 07:06:39;;;;;;;6.78;3.13;;;;;;;;;;7406691;19;19949;-81
2024/03/10 07:09:25;;;;;;;8.07;3.78;;;;;;;;;;7409803;19;19918;-81
2024/03/10 07:12:12;;;;;;;6.75;3.25;;;;;;;;;;7407061;19;19915;-81
2024/03/10 07:14:59;;;;;;;6.75;3.40;;;;;;;;;;7406845;19;19911;-81
2024/03/10 07:17:46;;;;;;;6.80;3.65;;;;;;;;;;7408926;19;19945;-81
2024/03/10 07:20:30;;;;;;;6.72;3.20;;;;;;;;;;7408736;19;20309;-81
2024/03/10 07:23:21;;;;;;;7.00;2.92;;;;;;;;;;7407906;19;19919;-82
2024/03/10 07:26:06;;;;;;;7.63;3.50;;;;;;;;;;7406665;19;19915;-82
2024/03/10 07:28:55;;;;;;;6.35;3.40;;;;;;;;;;7406949;19;19951;-82
2024/03/10 07:31:39;;;;;;;10.20;3.90;;;;;;;;;;7409544;19;19914;-81
2024/03/10 07:34:26;;;;;;;7.90;3.45;;;;;;;;;;7408193;19;19906;-81
2024/03/10 07:37:12;;;;;;;5.85;3.22;;;;;;;;;;7407733;19;19918;-81
2024/03/10 07:40:02;;;;;;;8.35;3.80;;;;;;;;;;7410373;19;20274;-81
2024/03/10 07:42:49;;;;;;;6.03;3.33;;;;;;;;;;7409600;19;19978;-81
2024/03/10 07:45:36;;;;;;;6.80;2.83;;;;;;;;;;7407906;19;20374;-81
2024/03/10 07:48:25;;;;;;;5.53;3.25;;;;;;;;;;7406188;19;19919;-81
2024/03/10 07:51:09;;;;;;;5.80;3.42;;;;;;;;;;7408351;19;19969;-81
2024/03/10 07:53:56;;;;;;;6.13;3.25;;;;;;;;;;7405712;19;19915;-81
2024/03/10 07:56:43;;;;;;;8.50;3.75;;;;;;;;;;7406343;19;20358;-82
2024/03/10 07:59:32;;;;;;;6.43;3.03;;;;;;;;;;7406978;19;19911;-82
2024/03/10 08:02:20;;;;;;;5.28;2.83;;;;;;;;;;7410055;19;19918;-82
2024/03/10 08:05:05;;;;;;;6.88;3.58;;;;;;;;;;7404750;19;19914;-82
2024/03/10 08:07:51;;;;;;;8.52;3.25;;;;;;;;;;7407112;19;20009;-82
2024/03/10 08:10:35;;;;;;;7.85;3.63;;;;;;;;;;7406088;19;19914;-81
2024/03/10 08:13:19;;;;;;;7.05;3.42;;;;;;;;;;7407340;19;19925;-81
2024/03/10 08:16:07;;;;;;;5.80;3.33;;;;;;;;;;7405470;19;20261;-81
2024/03/10 08:18:56;;;;;;;6.55;4.05;;;;;;;;;;7409481;19;19915;-81
2024/03/10 08:21:44;;;;;;;6.88;3.58;;;;;;;;;;7406628;19;19922;-81
2024/03/10 08:24:29;;;;;;;7.25;3.50;;;;;;;;;;7403687;19;20377;-81
2024/03/10 08:27:16;;;;;;;7.28;3.88;;;;;;;;;;7410344;19;20018;-81
2024/03/10 08:30:00;;;;;;;5.60;2.92;;;;;;;;;;7412564;19;19914;-81
2024/03/10 08:32:49;;;;;;;7.30;4.28;;;;;;;;;;7412725;19;19918;-81
2024/03/10 08:35:37;;;;;;;8.23;4.00;;;;;;;;;;7410649;19;20274;-81
2024/03/10 08:38:26;;;;;;;7.60;3.95;;;;;;;;;;7416150;19;20326;-82
2024/03/10 08:41:10;;;;;;;7.57;3.50;;;;;;;;;;7412703;19;19915;-82
2024/03/10 08:43:57;;;;;;;8.55;4.45;;;;;;;;;;7414316;19;19914;-82
2024/03/10 08:46:44;;;;;;;7.43;3.90;;;;;;;;;;7410611;19;19911;-82
2024/03/10 08:49:28;;;;;;;6.40;3.60;;;;;;;;;;7411188;19;19914;-82
2024/03/10 08:52:18;;;;;;;8.70;4.47;;;;;;;;;;7413687;19;19923;-82
2024/03/10 08:55:05;;;;;;;;;;;;;;;;;;7412242;19;19923;-83
2024/03/10 08:57:49;;;;;;;5.43;2.20;;;;;;;;;;7411169;19;19926;-81
2024/03/10 09:00:35;;;;;;;6.88;2.92;;;;;;;;;;7413432;19;19924;-83
2024/03/10 09:03:21;;;;;;;4.88;2.90;;;;;;;;;;7412815;19;19970;-81
2024/03/10 09:06:08;;;;;;;5.97;2.67;;;;;;;;;;7413010;19;19907;-81
2024/03/10 09:08:55;;;;;;;5.00;3.05;;;;;;;;;;7412745;19;20349;-83
2024/03/10 09:11:42;;;;;;;3.90;2.42;;;;;;;;;;7412075;19;20335;-81
2024/03/10 09:14:26;;;;;;;6.00;3.15;;;;;;;;;;7412481;19;19918;-81
2024/03/10 09:17:10;;;;;;;6.28;3.42;;;;;;;;;;7411559;19;19985;-81
2024/03/10 09:20:00;;;;;;;6.63;3.38;;;;;;;;;;7413514;19;19918;-83
2024/03/10 09:22:45;;;;;;;5.78;3.10;;;;;;;;;;7411929;19;19923;-81
2024/03/10 09:25:32;;;;;;;7.38;3.83;;;;;;;;;;7411955;19;19910;-82
2024/03/10 09:28:17;;;;;;;5.78;2.97;;;;;;;;;;7409829;19;19949;-83
2024/03/10 09:31:02;;;;;;;7.78;3.55;;;;;;;;;;7410296;19;19925;-83
2024/03/10 09:33:46;;;;;;;7.88;4.05;;;;;;;;;;7410962;19;19926;-83
2024/03/10 09:36:33;;;;;;;6.88;3.40;;;;;;;;;;7410162;19;20361;-83
2024/03/10 09:39:22;;;;;;;7.57;3.85;;;;;;;;;;7410081;19;19930;-83
2024/03/10 09:42:14;;;;;;;6.10;3.40;;;;;;;;;;7412404;19;20246;-84
2024/03/10 09:45:05;;;;;;;5.65;3.15;;;;;;;;;;7411201;19;20139;-84
2024/03/10 09:47:52;;;;;;;6.72;3.05;;;;;;;;;;7410527;19;20329;-84
2024/03/10 09:50:38;;;;;;;5.63;3.15;;;;;;;;;;7411980;19;19915;-84
2024/03/10 09:53:27;;;;;;;7.05;3.60;;;;;;;;;;7411298;19;20333;-84
2024/03/10 09:56:14;;;;;;;6.82;3.45;;;;;;;;;;7410014;19;20258;-84
2024/03/10 09:59:07;;;;;;;8.90;4.15;;;;;;;;;;7417293;19;19986;-84
2024/03/10 10:01:57;;;;;;;6.47;3.70;;;;;;;;;;7416856;19;19961;-84
2024/03/10 10:04:51;;;;;;;6.50;3.30;;;;;;;;;;7417664;19;20226;-84
2024/03/10 10:07:38;;;;;;;7.88;4.22;;;;;;;;;;7415321;19;19913;-84
2024/03/10 10:10:23;;;;;;;9.55;4.88;;;;;;;;;;7416651;19;19933;-84
2024/03/10 10:13:08;;;;;;;9.07;4.45;;;;;;;;;;7413958;19;20333;-84
2024/03/10 10:15:56;;;;;;;11.13;4.93;;;;;;;;;;7411583;19;19986;-84
2024/03/10 10:18:42;;;;;;;;;;;;;;;;;;7419366;19;19994;-84
2024/03/10 10:21:30;;;;;;;6.22;3.33;;;;;;;;;;7416376;19;19918;-84
2024/03/10 10:24:15;;;;;;;6.43;3.78;;;;;;;;;;7412803;19;20273;-84
2024/03/10 10:27:02;;;;;;;9.25;4.40;;;;;;;;;;7412960;19;19921;-84
2024/03/10 10:29:52;;;;;;;8.82;4.15;;;;;;;;;;7415342;19;20519;-84
2024/03/10 10:32:41;;;;;;;7.55;4.13;;;;;;;;;;7417536;19;19917;-84
2024/03/10 10:35:27;;;;;;;7.57;4.15;;;;;;;;;;7412690;19;19918;-84
2024/03/10 10:38:15;;;;;;;8.10;4.35;;;;;;;;;;7412559;19;20428;-84
2024/03/10 10:41:02;;;;;;;8.88;4.15;;;;;;;;;;7415815;19;19923;-84
2024/03/10 10:43:47;;;;;;;10.95;5.30;;;;;;;;;;7414924;19;20464;-84
2024/03/10 10:46:38;;;;;;;;;;;;;;;;;;7417102;19;19910;-84
2024/03/10 10:49:25;;;;;;;7.10;3.47;;;;;;;;;;7414008;19;19907;-84
2024/03/10 10:52:13;;;;;;;8.38;4.10;;;;;;;;;;7415434;19;19914;-84
2024/03/10 10:54:59;;;;;;;7.93;4.75;;;;;;;;;;7412626;19;20003;-84
2024/03/10 10:57:47;;;;;;;7.28;4.72;;;;;;;;;;7414428;19;20331;-84
2024/03/10 11:00:32;;;;;;;9.05;4.88;;;;;;;;;;7416613;19;19931;-84
2024/03/10 11:03:24;;;;;;;8.48;4.63;;;;;;;;;;7415001;19;19918;-82
2024/03/10 11:06:38;;;;;;;8.35;4.63;;;;;;;;;;7412344;19;19942;-84
2024/03/10 11:09:28;;;;;;;8.88;4.82;;;;;;;;;;7412409;19;19910;-84
2024/03/10 11:12:21;;;;;;;9.80;5.18;;;;;;;;;;7412793;19;19929;-84
2024/03/10 11:15:08;;;;;;;9.00;4.60;;;;;;;;;;7411073;19;19978;-84
2024/03/10 11:17:57;;;;;;;8.43;4.53;;;;;;;;;;7411933;19;20251;-84
2024/03/10 11:20:42;;;;;;;6.90;3.63;;;;;;;;;;7415077;19;19956;-84
2024/03/10 11:23:39;;;;;;;9.02;4.20;;;;;;;;;;7414673;19;19923;-84
2024/03/10 11:26:26;;;;;;;9.65;5.40;;;;;;;;;;7410909;19;19911;-82
2024/03/10 11:29:28;;;;;;;9.68;4.95;;;;;;;;;;7414359;19;19906;-84
2024/03/10 11:32:36;;;;;;;8.48;4.93;;;;;;;;;;7413102;19;19943;-84
2024/03/10 11:35:22;;;;;;;9.45;3.97;;;;;;;;;;7410230;19;19927;-84
2024/03/10 11:38:15;;;;;;;8.95;5.32;;;;;;;;;;7410305;19;19925;-83
2024/03/10 11:41:10;;;;;;;7.68;5.00;;;;;;;;;;7414111;19;19911;-84
2024/03/10 11:43:57;;;;;;;9.70;4.88;;;;;;;;;;7414307;19;19914;-84
2024/03/10 11:46:43;;;;;;;9.27;5.05;;;;;;;;;;7411653;19;20455;-84
2024/03/10 11:49:27;;;;;;;7.03;4.45;;;;;;;;;;7412278;19;20362;-83
2024/03/10 11:52:15;;;;;;;9.88;4.90;;;;;;;;;;7412122;19;19926;-83
2024/03/10 11:55:10;;;;;;;8.93;5.05;;;;;;;;;;7410377;19;19919;-83
2024/03/10 11:58:01;;;;;;;8.30;4.78;;;;;;;;;;7407287;19;20241;-83
2024/03/10 12:00:45;;;;;;;9.15;3.95;;;;;;;;;;7413307;19;20349;-83
2024/03/10 12:03:35;;;;;;;9.70;4.95;;;;;;;;;;7419188;19;20398;-83
2024/03/10 12:06:20;;;;;;;9.93;5.32;;;;;;;;;;7415155;19;19922;-83
2024/03/10 12:09:12;;;;;;;11.07;5.80;;;;;;;;;;7418771;19;19949;-83
2024/03/10 12:12:13;;;;;;;10.05;4.97;;;;;;;;;;7418519;19;20349;-83
2024/03/10 12:15:04;;;;;;;8.68;5.13;;;;;;;;;;7417311;19;19923;-83
2024/03/10 12:17:52;;;;;;;11.38;5.30;;;;;;;;;;7416262;19;19930;-83
2024/03/10 12:20:37;;;;;;;8.98;5.35;;;;;;;;;;7418996;19;19950;-84
2024/03/10 12:23:26;;;;;;;9.27;5.07;;;;;;;;;;7419912;19;19926;-84
2024/03/10 12:26:14;;;;;;;9.55;5.47;;;;;;;;;;7415142;19;19910;-84
2024/03/10 12:28:59;;;;;;;11.00;5.75;;;;;;;;;;7418520;19;19926;-84
2024/03/10 12:31:48;;;;;;;11.35;5.28;;;;;;;;;;7419165;19;19915;-83
2024/03/10 12:34:32;;;;;;;8.38;3.95;;;;;;;;;;7412827;19;19918;-83
2024/03/10 12:37:17;;;;;;;9.10;4.75;;;;;;;;;;7414041;19;19918;-83
2024/03/10 12:40:04;;;;;;;10.02;5.30;;;;;;;;;;7420016;19;19926;-84
2024/03/10 12:42:50;;;;;;;10.88;5.22;;;;;;;;;;7417361;19;19917;-83
2024/03/10 12:45:38;;;;;;;10.38;5.18;;;;;;;;;;7415702;19;19928;-82
2024/03/10 12:48:27;;;;;;;10.15;5.18;;;;;;;;;;7413797;19;19922;-83
2024/03/10 12:51:14;;;;;;;9.27;5.40;;;;;;;;;;7415979;19;20352;-85
2024/03/10 12:54:01;;;;;;;10.25;5.38;;;;;;;;;;7413983;19;20348;-82
2024/03/10 12:56:45;;;;;;;9.70;5.63;;;;;;;;;;7411111;19;19910;-83
2024/03/10 12:59:30;;;;;;;12.25;5.20;;;;;;;;;;7415963;19;20302;-83
2024/03/10 13:02:14;;;;;;;9.30;4.90;;;;;;;;;;7418875;19;19923;-83
2024/03/10 13:05:03;;;;;;;8.88;4.97;;;;;;;;;;7418175;19;19915;-83
2024/03/10 13:07:48;;;;;;;8.00;4.78;;;;;;;;;;7415827;19;19974;-83
2024/03/10 13:10:32;;;;;;;9.30;4.82;;;;;;;;;;7416606;19;20007;-84
2024/03/10 13:13:19;;;;;;;9.45;5.22;;;;;;;;;;7416353;19;19926;-83
2024/03/10 13:16:09;;;;;;;9.10;5.07;;;;;;;;;;7413714;19;19911;-83
2024/03/10 13:18:53;;;;;;;8.27;4.70;;;;;;;;;;7416675;19;19914;-83
2024/03/10 13:21:43;;;;;;;9.57;5.28;;;;;;;;;;7417565;19;19929;-83
2024/03/10 13:24:32;;;;;;;11.82;4.63;;;;;;;;;;7415902;19;19931;-83
2024/03/10 13:27:17;;;;;;;7.90;4.68;;;;;;;;;;7415407;19;19919;-83
2024/03/10 13:30:05;;;;;;;8.40;4.93;;;;;;;;;;7418076;19;19919;-83
2024/03/10 13:32:52;;;;;;;11.45;5.85;;;;;;;;;;7416203;19;19925;-83
2024/03/10 13:35:36;;;;;;;10.57;5.93;;;;;;;;;;7414780;19;19934;-83
2024/03/10 13:38:27;;;;;;;11.27;5.88;;;;;;;;;;7413481;19;19926;-83
2024/03/10 13:41:11;;;;;;;11.00;6.30;;;;;;;;;;7417082;19;20277;-83
2024/03/10 13:44:02;;;;;;;10.05;5.20;;;;;;;;;;7417469;19;20178;-83
2024/03/10 13:46:48;;;;;;;8.80;5.15;;;;;;;;;;7415899;19;19941;-83
2024/03/10 13:49:35;;;;;;;9.40;5.25;;;;;;;;;;7416020;19;19934;-83
2024/03/10 13:52:22;;;;;;;12.52;5.75;;;;;;;;;;7414991;19;19934;-83
2024/03/10 13:55:12;;;;;;;9.80;5.40;;;;;;;;;;7414958;19;19914;-83
2024/03/10 13:57:58;;;;;;;10.02;5.35;;;;;;;;;;7414971;19;19918;-83
2024/03/10 14:00:44;;;;;;;10.68;5.80;;;;;;;;;;7415065;19;19986;-83
2024/03/10 14:03:32;;;;;;;8.48;4.97;;;;;;;;;;7415777;19;19923;-84
2024/03/10 14:06:16;;;;;;;9.23;5.10;;;;;;;;;;7413943;19;19923;-84
2024/03/10 14:09:01;;;;;;;9.13;5.57;;;;;;;;;;7415636;19;19915;-84
2024/03/10 14:11:48;;;;;;;8.63;5.15;;;;;;;;;;7414876;19;19922;-84
2024/03/10 14:14:34;;;;;;;7.80;4.70;;;;;;;;;;7411421;19;19982;-84
2024/03/10 14:17:19;;;;;;;8.73;5.35;;;;;;;;;;7414019;19;19918;-84
2024/03/10 14:20:13;;;;;;;9.10;5.30;;;;;;;;;;7416226;19;19915;-84
2024/03/10 14:23:02;;;;;;;10.25;5.75;;;;;;;;;;7416566;19;20350;-84
2024/03/10 14:25:52;;;;;;;12.25;6.07;;;;;;;;;;7411574;19;19915;-83
2024/03/10 14:28:42;;;;;;;9.80;5.43;;;;;;;;;;7415220;19;19906;-83
2024/03/10 14:31:26;;;;;;;9.75;5.78;;;;;;;;;;7414949;19;19923;-83
2024/03/10 14:34:10;;;;;;;10.13;5.53;;;;;;;;;;7414863;19;20389;-83
2024/03/10 14:36:54;;;;;;;10.13;5.45;;;;;;;;;;7414705;19;19943;-83
2024/03/10 14:39:39;;;;;;;10.65;5.65;;;;;;;;;;7415367;19;19922;-84
2024/03/10 14:42:24;;;;;;;8.27;5.10;;;;;;;;;;7414028;19;19922;-84
2024/03/10 14:45:14;;;;;;;9.82;5.95;;;;;;;;;;7412940;19;19918;-84
2024/03/10 14:48:01;;;;;;;9.50;5.20;;;;;;;;;;7413713;19;19958;-84
2024/03/10 14:50:48;;;;;;;11.60;5.70;;;;;;;;;;7414847;19;20261;-84
2024/03/10 14:53:32;;;;;;;10.05;6.15;;;;;;;;;;7413657;19;19914;-84
2024/03/10 14:56:16;;;;;;;10.02;5.90;;;;;;;;;;7414745;19;19923;-84
2024/03/10 14:59:01;;;;;;;10.48;5.85;;;;;;;;;;7414061;19;20434;-83
2024/03/10 15:01:48;;;;;;;9.52;6.10;;;;;;;;;;7414276;19;20259;-83
2024/03/10 15:04:32;;;;;;;12.10;5.68;;;;;;;;;;7413063;19;19914;-83
2024/03/10 15:07:19;;;;;;;9.32;5.82;;;;;;;;;;7414013;19;20011;-84
2024/03/10 15:10:07;;;;;;;11.07;6.15;;;;;;;;;;7410049;19;20001;-83
2024/03/10 15:12:54;;;;;;;10.30;5.78;;;;;;;;;;7413571;19;19918;-83
2024/03/10 15:15:39;;;;;;;8.85;5.82;;;;;;;;;;7413332;19;19918;-83
2024/03/10 15:18:31;;;;;;;10.90;6.05;;;;;;;;;;7408426;19;19995;-83
2024/03/10 15:21:20;;;;;;;11.82;5.95;;;;;;;;;;7410755;19;19918;-83
2024/03/10 15:24:05;;;;;;;10.95;6.05;;;;;;;;;;7411396;19;19926;-84
2024/03/10 15:26:50;;;;;;;8.60;5.05;;;;;;;;;;7410490;19;19906;-83
2024/03/10 15:29:37;;;;;;;11.05;5.60;;;;;;;;;;7410962;19;19910;-83
2024/03/10 15:32:22;;;;;;;8.82;5.20;;;;;;;;;;7413354;19;19919;-83
2024/03/10 15:35:10;;;;;;;8.50;5.03;;;;;;;;;;7417618;19;20337;-83
2024/03/10 15:37:54;;;;;;;10.80;5.90;;;;;;;;;;7425181;19;19911;-83
2024/03/10 15:40:44;;;;;;;8.90;5.03;;;;;;;;;;7428365;19;19923;-82
2024/03/10 15:43:31;;;;;;;12.45;5.50;;;;;;;;;;7426928;19;19949;-82
2024/03/10 15:46:18;;;;;;;9.57;5.80;;;;;;;;;;7425035;19;19919;-82
2024/03/10 15:49:04;;;;;;;10.70;5.65;;;;;;;;;;7428099;19;20386;-82
2024/03/10 15:51:51;;;;;;;10.73;5.50;;;;;;;;;;7426629;19;19935;-83
2024/03/10 15:54:37;;;;;;;11.77;5.47;;;;;;;;;;7423687;19;19926;-83
2024/03/10 15:57:24;;;;;;;9.95;5.53;;;;;;;;;;7421573;19;19918;-83
2024/03/10 16:00:15;;;;;;;10.35;5.47;;;;;;;;;;7425077;19;19982;-83
2024/03/10 16:03:10;;;;;;;10.75;5.13;;;;;;;;;;7425953;19;19914;-83
2024/03/10 16:05:57;;;;;;;9.52;5.22;;;;;;;;;;7423215;19;19930;-83
2024/03/10 16:08:47;;;;;;;10.48;5.53;;;;;;;;;;7424803;19;19926;-83
2024/03/10 16:11:31;;;;;;;8.68;4.90;;;;;;;;;;7424971;19;20254;-83
2024/03/10 16:14:17;;;;;;;8.52;5.13;;;;;;;;;;7425040;19;19919;-83
2024/03/10 16:17:08;;;;;;;11.38;5.45;;;;;;;;;;7424501;19;20272;-83
2024/03/10 16:19:52;;;;;;;11.90;6.03;;;;;;;;;;7424086;19;19923;-84
2024/03/10 16:22:36;;;;;;;11.98;5.82;;;;;;;;;;7424462;19;19940;-83
2024/03/10 16:25:28;;;;;;;10.45;5.47;;;;;;;;;;7423105;19;19958;-83
2024/03/10 16:28:14;;;;;;;12.55;6.05;;;;;;;;;;7423266;19;19960;-83
2024/03/10 16:31:02;;;;;;;16.38;6.80;;;;;;;;;;7422249;19;19918;-83
2024/03/10 16:33:49;;;;;;;13.20;6.60;;;;;;;;;;7421677;19;19927;-83
2024/03/10 16:36:33;;;;;;;11.27;5.93;;;;;;;;;;7420309;19;20007;-83
2024/03/10 16:39:18;;;;;;;11.27;6.13;;;;;;;;;;7422343;19;19982;-83
2024/03/10 16:42:08;;;;;;;13.88;6.75;;;;;;;;;;7422935;19;19949;-83
2024/03/10 16:44:56;;;;;;;11.45;6.65;;;;;;;;;;7421501;19;20348;-83
2024/03/10 16:47:47;;;;;;;;;;;;;;;;;;7421374;19;19914;-83
2024/03/10 16:50:33;;;;;;;13.43;7.22;;;;;;;;;;7423076;19;20345;-83
2024/03/10 16:53:20;;;;;;;12.32;6.35;;;;;;;;;;7421411;19;20315;-82
2024/03/10 16:56:06;;;;;;;11.40;5.95;;;;;;;;;;7418329;19;19922;-82
2024/03/10 16:58:55;;;;;;;14.80;6.85;;;;;;;;;;7418002;19;20385;-82
2024/03/10 17:01:40;;;;;;;11.95;5.50;;;;;;;;;;7418602;19;19915;-82
2024/03/10 17:04:27;;;;;;;12.48;6.85;;;;;;;;;;7417277;19;19923;-83